sensor_id;sensor_type;location;lat;lon;timestamp;pressure;altitude;pressure_sealevel;temperature;humidity
72370;BME280;60343;-32.030;115.880;2023-03-01T00:01:37;101461.81;;;26.30;41.12
72370;BME280;60343;-32.030;115.880;2023-03-01T00:04:12;101454.38;;;26.31;40.90
72370;BME280;60343;-32.030;115.880;2023-03-01T00:06:47;101463.78;;;26.72;41.00
72370;BME280;60343;-32.030;115.880;2023-03-01T00:09:21;101465.09;;;27.01;39.89
72370;BME280;60343;-32.030;115.880;2023-03-01T00:12:02;101456.31;;;26.99;39.51
72370;BME280;60343;-32.030;115.880;2023-03-01T00:14:37;101461.31;;;27.07;39.72
72370;BME280;60343;-32.030;115.880;2023-03-01T00:17:12;101466.16;;;27.42;39.69
72370;BME280;60343;-32.030;115.880;2023-03-01T00:19:46;101464.41;;;27.78;38.30
72370;BME280;60343;-32.030;115.880;2023-03-01T00:22:21;101461.44;;;28.00;38.43
72370;BME280;60343;-32.030;115.880;2023-03-01T00:24:55;101469.75;;;28.15;37.58
72370;BME280;60343;-32.030;115.880;2023-03-01T00:27:35;101465.63;;;28.48;37.26
72370;BME280;60343;-32.030;115.880;2023-03-01T00:30:11;101457.34;;;28.88;36.75
72370;BME280;60343;-32.030;115.880;2023-03-01T00:32:45;101457.84;;;29.16;36.62
72370;BME280;60343;-32.030;115.880;2023-03-01T00:35:20;101461.44;;;29.21;35.31
72370;BME280;60343;-32.030;115.880;2023-03-01T00:37:54;101461.38;;;29.47;35.97
72370;BME280;60343;-32.030;115.880;2023-03-01T00:40:30;101465.72;;;29.53;34.82
72370;BME280;60343;-32.030;115.880;2023-03-01T00:43:10;101466.53;;;29.58;34.57
72370;BME280;60343;-32.030;115.880;2023-03-01T00:45:44;101461.47;;;29.80;34.83
72370;BME280;60343;-32.030;115.880;2023-03-01T00:48:19;101463.97;;;29.77;34.32
72370;BME280;60343;-32.030;115.880;2023-03-01T00:50:55;101461.44;;;29.85;33.39
72370;BME280;60343;-32.030;115.880;2023-03-01T00:53:29;101463.56;;;30.04;33.79
72370;BME280;60343;-32.030;115.880;2023-03-01T00:56:05;101463.56;;;30.43;32.84
72370;BME280;60343;-32.030;115.880;2023-03-01T00:58:46;101457.72;;;30.10;33.04
72370;BME280;60343;-32.030;115.880;2023-03-01T01:01:23;101462.44;;;30.05;33.42
72370;BME280;60343;-32.030;115.880;2023-03-01T01:03:59;101460.22;;;30.12;33.35
72370;BME280;60343;-32.030;115.880;2023-03-01T01:06:36;101458.41;;;30.31;33.02
72370;BME280;60343;-32.030;115.880;2023-03-01T01:09:12;101472.88;;;30.57;32.43
72370;BME280;60343;-32.030;115.880;2023-03-01T01:11:48;101460.53;;;30.39;32.57
72370;BME280;60343;-32.030;115.880;2023-03-01T01:14:28;101458.41;;;30.65;32.63
72370;BME280;60343;-32.030;115.880;2023-03-01T01:17:03;101454.81;;;30.64;32.54
72370;BME280;60343;-32.030;115.880;2023-03-01T01:19:37;101442.69;;;30.89;32.65
72370;BME280;60343;-32.030;115.880;2023-03-01T01:22:12;101450.00;;;30.75;32.43
72370;BME280;60343;-32.030;115.880;2023-03-01T01:24:46;101437.78;;;30.81;32.19
72370;BME280;60343;-32.030;115.880;2023-03-01T01:27:21;101440.38;;;31.25;32.11
72370;BME280;60343;-32.030;115.880;2023-03-01T01:30:01;101426.09;;;31.61;31.43
72370;BME280;60343;-32.030;115.880;2023-03-01T01:32:37;101423.72;;;31.73;30.54
72370;BME280;60343;-32.030;115.880;2023-03-01T01:35:12;101425.66;;;31.91;30.82
72370;BME280;60343;-32.030;115.880;2023-03-01T01:37:48;101422.88;;;31.91;30.22
72370;BME280;60343;-32.030;115.880;2023-03-01T01:40:22;101422.81;;;31.96;30.37
72370;BME280;60343;-32.030;115.880;2023-03-01T01:42:57;101430.66;;;32.26;30.90
72370;BME280;60343;-32.030;115.880;2023-03-01T01:45:38;101421.06;;;32.70;29.25
72370;BME280;60343;-32.030;115.880;2023-03-01T01:48:14;101428.38;;;32.80;28.45
72370;BME280;60343;-32.030;115.880;2023-03-01T01:50:55;101423.03;;;32.97;28.87
72370;BME280;60343;-32.030;115.880;2023-03-01T01:53:31;101412.72;;;32.70;29.15
72370;BME280;60343;-32.030;115.880;2023-03-01T01:56:08;101419.25;;;32.79;28.82
72370;BME280;60343;-32.030;115.880;2023-03-01T01:58:45;101409.47;;;32.95;29.00
72370;BME280;60343;-32.030;115.880;2023-03-01T02:01:27;101412.28;;;33.09;28.52
72370;BME280;60343;-32.030;115.880;2023-03-01T02:04:01;101394.56;;;32.91;28.30
72370;BME280;60343;-32.030;115.880;2023-03-01T02:06:39;101395.31;;;32.97;28.64
72370;BME280;60343;-32.030;115.880;2023-03-01T02:09:16;101389.34;;;33.03;28.46
72370;BME280;60343;-32.030;115.880;2023-03-01T02:11:53;101403.44;;;33.20;28.35
72370;BME280;60343;-32.030;115.880;2023-03-01T02:14:27;101396.03;;;33.02;28.94
72370;BME280;60343;-32.030;115.880;2023-03-01T02:17:08;101397.81;;;33.61;28.51
72370;BME280;60343;-32.030;115.880;2023-03-01T02:19:52;101388.09;;;33.86;28.09
72370;BME280;60343;-32.030;115.880;2023-03-01T02:22:36;101386.97;;;34.32;27.62
72370;BME280;60343;-32.030;115.880;2023-03-01T02:25:31;101386.44;;;34.52;27.13
72370;BME280;60343;-32.030;115.880;2023-03-01T02:28:24;101376.72;;;33.96;27.21
72370;BME280;60343;-32.030;115.880;2023-03-01T02:30:59;101371.56;;;34.26;26.78
72370;BME280;60343;-32.030;115.880;2023-03-01T02:33:44;101373.31;;;34.44;27.12
72370;BME280;60343;-32.030;115.880;2023-03-01T02:36:21;101363.19;;;34.48;26.79
72370;BME280;60343;-32.030;115.880;2023-03-01T02:39:00;101373.38;;;34.53;26.95
72370;BME280;60343;-32.030;115.880;2023-03-01T02:41:45;101363.72;;;34.50;26.48
72370;BME280;60343;-32.030;115.880;2023-03-01T02:44:26;101360.25;;;34.75;26.22
72370;BME280;60343;-32.030;115.880;2023-03-01T02:47:03;101365.00;;;34.75;26.06
72370;BME280;60343;-32.030;115.880;2023-03-01T02:49:38;101364.88;;;34.27;27.07
72370;BME280;60343;-32.030;115.880;2023-03-01T02:52:28;101359.75;;;33.98;27.49
72370;BME280;60343;-32.030;115.880;2023-03-01T02:55:06;101364.63;;;34.15;27.52
72370;BME280;60343;-32.030;115.880;2023-03-01T02:57:45;101355.50;;;34.45;26.67
72370;BME280;60343;-32.030;115.880;2023-03-01T03:00:30;101345.78;;;34.34;26.98
72370;BME280;60343;-32.030;115.880;2023-03-01T03:03:08;101343.31;;;34.32;28.05
72370;BME280;60343;-32.030;115.880;2023-03-01T03:05:42;101337.75;;;34.63;27.06
72370;BME280;60343;-32.030;115.880;2023-03-01T03:08:17;101338.34;;;34.91;26.82
72370;BME280;60343;-32.030;115.880;2023-03-01T03:10:52;101331.94;;;34.82;26.10
72370;BME280;60343;-32.030;115.880;2023-03-01T03:13:26;101324.75;;;34.81;26.41
72370;BME280;60343;-32.030;115.880;2023-03-01T03:16:07;101318.44;;;34.67;26.57
72370;BME280;60343;-32.030;115.880;2023-03-01T03:18:42;101317.53;;;34.40;26.71
72370;BME280;60343;-32.030;115.880;2023-03-01T03:21:19;101316.16;;;34.60;27.19
72370;BME280;60343;-32.030;115.880;2023-03-01T03:23:54;101313.09;;;34.70;26.24
72370;BME280;60343;-32.030;115.880;2023-03-01T03:26:29;101310.88;;;34.98;25.54
72370;BME280;60343;-32.030;115.880;2023-03-01T03:29:04;101321.78;;;34.77;26.26
72370;BME280;60343;-32.030;115.880;2023-03-01T03:31:44;101315.16;;;34.96;26.62
72370;BME280;60343;-32.030;115.880;2023-03-01T03:34:19;101319.47;;;35.19;25.69
72370;BME280;60343;-32.030;115.880;2023-03-01T03:36:55;101308.00;;;35.29;25.56
72370;BME280;60343;-32.030;115.880;2023-03-01T03:39:30;101307.03;;;35.34;25.59
72370;BME280;60343;-32.030;115.880;2023-03-01T03:42:04;101288.66;;;35.41;26.22
72370;BME280;60343;-32.030;115.880;2023-03-01T03:44:39;101292.94;;;35.64;25.46
72370;BME280;60343;-32.030;115.880;2023-03-01T03:47:19;101289.34;;;35.38;25.81
72370;BME280;60343;-32.030;115.880;2023-03-01T03:49:53;101277.03;;;35.65;25.89
72370;BME280;60343;-32.030;115.880;2023-03-01T03:52:29;101275.75;;;35.80;24.52
72370;BME280;60343;-32.030;115.880;2023-03-01T03:55:04;101271.91;;;36.10;24.66
72370;BME280;60343;-32.030;115.880;2023-03-01T03:57:39;101275.63;;;36.31;24.40
72370;BME280;60343;-32.030;115.880;2023-03-01T04:00:18;101284.31;;;36.68;23.80
72370;BME280;60343;-32.030;115.880;2023-03-01T04:02:58;101264.69;;;36.85;23.86
72370;BME280;60343;-32.030;115.880;2023-03-01T04:05:33;101256.00;;;37.07;24.06
72370;BME280;60343;-32.030;115.880;2023-03-01T04:08:08;101239.81;;;37.21;22.85
72370;BME280;60343;-32.030;115.880;2023-03-01T04:10:45;101235.09;;;37.34;23.57
72370;BME280;60343;-32.030;115.880;2023-03-01T04:13:21;101228.53;;;37.71;22.81
72370;BME280;60343;-32.030;115.880;2023-03-01T04:15:56;101223.22;;;37.91;22.48
72370;BME280;60343;-32.030;115.880;2023-03-01T04:18:36;101212.66;;;38.08;22.33
72370;BME280;60343;-32.030;115.880;2023-03-01T04:21:11;101210.59;;;38.17;21.50
72370;BME280;60343;-32.030;115.880;2023-03-01T04:23:45;101200.56;;;38.16;21.42
72370;BME280;60343;-32.030;115.880;2023-03-01T04:26:20;101198.22;;;38.06;21.78
72370;BME280;60343;-32.030;115.880;2023-03-01T04:28:55;101189.34;;;38.29;22.07
72370;BME280;60343;-32.030;115.880;2023-03-01T04:31:30;101182.59;;;38.66;21.01
72370;BME280;60343;-32.030;115.880;2023-03-01T04:34:10;101183.75;;;38.16;21.66
72370;BME280;60343;-32.030;115.880;2023-03-01T04:36:44;101180.91;;;37.80;21.81
72370;BME280;60343;-32.030;115.880;2023-03-01T04:39:19;101180.84;;;38.13;21.24
72370;BME280;60343;-32.030;115.880;2023-03-01T04:41:53;101183.22;;;38.47;21.24
72370;BME280;60343;-32.030;115.880;2023-03-01T04:44:28;101183.59;;;38.74;20.85
72370;BME280;60343;-32.030;115.880;2023-03-01T04:47:03;101178.00;;;38.74;20.97
72370;BME280;60343;-32.030;115.880;2023-03-01T04:49:43;101172.34;;;38.21;20.91
72370;BME280;60343;-32.030;115.880;2023-03-01T04:52:18;101171.25;;;38.38;21.82
72370;BME280;60343;-32.030;115.880;2023-03-01T04:54:52;101168.84;;;38.37;20.80
72370;BME280;60343;-32.030;115.880;2023-03-01T04:57:27;101164.88;;;38.62;21.14
72370;BME280;60343;-32.030;115.880;2023-03-01T05:00:02;101160.78;;;38.59;20.98
72370;BME280;60343;-32.030;115.880;2023-03-01T05:02:48;101159.66;;;38.88;20.42
72370;BME280;60343;-32.030;115.880;2023-03-01T05:05:32;101156.38;;;39.26;19.47
72370;BME280;60343;-32.030;115.880;2023-03-01T05:08:08;101152.03;;;39.29;19.50
72370;BME280;60343;-32.030;115.880;2023-03-01T05:10:45;101144.59;;;39.33;20.07
72370;BME280;60343;-32.030;115.880;2023-03-01T05:13:21;101147.59;;;39.56;19.56
72370;BME280;60343;-32.030;115.880;2023-03-01T05:15:58;101144.81;;;39.71;18.73
72370;BME280;60343;-32.030;115.880;2023-03-01T05:18:34;101127.34;;;40.09;19.52
72370;BME280;60343;-32.030;115.880;2023-03-01T05:21:15;101137.69;;;40.21;19.13
72370;BME280;60343;-32.030;115.880;2023-03-01T05:23:49;101130.75;;;39.83;19.22
72370;BME280;60343;-32.030;115.880;2023-03-01T05:26:24;101134.41;;;39.56;19.57
72370;BME280;60343;-32.030;115.880;2023-03-01T05:28:59;101120.66;;;40.14;18.80
72370;BME280;60343;-32.030;115.880;2023-03-01T05:31:33;101123.91;;;40.66;18.09
72370;BME280;60343;-32.030;115.880;2023-03-01T05:34:08;101123.44;;;40.64;18.45
72370;BME280;60343;-32.030;115.880;2023-03-01T05:36:49;101111.03;;;40.85;17.82
72370;BME280;60343;-32.030;115.880;2023-03-01T05:39:25;101118.44;;;40.74;18.44
72370;BME280;60343;-32.030;115.880;2023-03-01T05:42:01;101111.59;;;40.55;18.10
72370;BME280;60343;-32.030;115.880;2023-03-01T05:44:36;101104.69;;;40.68;18.21
72370;BME280;60343;-32.030;115.880;2023-03-01T05:47:11;101100.00;;;40.57;17.30
72370;BME280;60343;-32.030;115.880;2023-03-01T05:49:45;101099.50;;;40.70;17.15
72370;BME280;60343;-32.030;115.880;2023-03-01T05:52:25;101088.41;;;40.39;18.65
72370;BME280;60343;-32.030;115.880;2023-03-01T05:54:59;101096.88;;;39.61;19.58
72370;BME280;60343;-32.030;115.880;2023-03-01T05:57:34;101095.44;;;39.08;20.20
72370;BME280;60343;-32.030;115.880;2023-03-01T06:00:10;101091.09;;;39.10;19.62
72370;BME280;60343;-32.030;115.880;2023-03-01T06:02:45;101088.53;;;38.77;18.74
72370;BME280;60343;-32.030;115.880;2023-03-01T06:05:20;101092.78;;;38.59;19.13
72370;BME280;60343;-32.030;115.880;2023-03-01T06:08:00;101086.78;;;38.45;19.56
72370;BME280;60343;-32.030;115.880;2023-03-01T06:10:36;101083.75;;;38.13;19.40
72370;BME280;60343;-32.030;115.880;2023-03-01T06:13:10;101083.31;;;37.99;19.84
72370;BME280;60343;-32.030;115.880;2023-03-01T06:15:45;101077.00;;;38.14;20.59
72370;BME280;60343;-32.030;115.880;2023-03-01T06:18:21;101073.66;;;39.17;19.33
72370;BME280;60343;-32.030;115.880;2023-03-01T06:20:56;101065.13;;;39.72;18.09
72370;BME280;60343;-32.030;115.880;2023-03-01T06:23:36;101065.03;;;39.84;18.57
72370;BME280;60343;-32.030;115.880;2023-03-01T06:26:11;101053.22;;;40.26;18.39
72370;BME280;60343;-32.030;115.880;2023-03-01T06:28:45;101040.22;;;40.56;19.72
72370;BME280;60343;-32.030;115.880;2023-03-01T06:31:20;101042.47;;;40.66;16.58
72370;BME280;60343;-32.030;115.880;2023-03-01T06:33:55;101051.38;;;39.99;16.96
72370;BME280;60343;-32.030;115.880;2023-03-01T06:36:29;101038.38;;;39.43;17.86
72370;BME280;60343;-32.030;115.880;2023-03-01T06:39:09;101041.63;;;39.45;19.47
72370;BME280;60343;-32.030;115.880;2023-03-01T06:41:45;101041.84;;;39.25;19.45
72370;BME280;60343;-32.030;115.880;2023-03-01T06:44:20;101038.78;;;39.14;18.68
72370;BME280;60343;-32.030;115.880;2023-03-01T06:46:54;101031.47;;;38.54;20.35
72370;BME280;60343;-32.030;115.880;2023-03-01T06:49:29;101033.25;;;38.46;19.02
72370;BME280;60343;-32.030;115.880;2023-03-01T06:52:04;101028.97;;;38.25;18.93
72370;BME280;60343;-32.030;115.880;2023-03-01T06:54:44;101026.84;;;38.34;18.66
72370;BME280;60343;-32.030;115.880;2023-03-01T06:57:18;101023.63;;;38.19;18.84
72370;BME280;60343;-32.030;115.880;2023-03-01T06:59:53;101028.03;;;38.33;19.39
72370;BME280;60343;-32.030;115.880;2023-03-01T07:02:27;101022.88;;;38.35;19.96
72370;BME280;60343;-32.030;115.880;2023-03-01T07:05:02;101021.63;;;38.32;18.74
72370;BME280;60343;-32.030;115.880;2023-03-01T07:07:36;101013.56;;;38.31;19.27
72370;BME280;60343;-32.030;115.880;2023-03-01T07:10:17;101012.03;;;38.33;20.82
72370;BME280;60343;-32.030;115.880;2023-03-01T07:12:55;101011.28;;;38.20;22.51
72370;BME280;60343;-32.030;115.880;2023-03-01T07:15:30;101010.84;;;38.06;20.04
72370;BME280;60343;-32.030;115.880;2023-03-01T07:18:04;101001.41;;;38.11;20.65
72370;BME280;60343;-32.030;115.880;2023-03-01T07:20:39;101006.31;;;38.42;19.30
72370;BME280;60343;-32.030;115.880;2023-03-01T07:23:15;101013.72;;;38.90;23.19
72370;BME280;60343;-32.030;115.880;2023-03-01T07:25:58;101013.47;;;39.11;18.32
72370;BME280;60343;-32.030;115.880;2023-03-01T07:28:33;101005.16;;;39.14;18.40
72370;BME280;60343;-32.030;115.880;2023-03-01T07:31:09;100996.91;;;39.33;18.23
72370;BME280;60343;-32.030;115.880;2023-03-01T07:33:43;100995.59;;;39.31;18.18
72370;BME280;60343;-32.030;115.880;2023-03-01T07:36:18;100995.69;;;39.50;18.01
72370;BME280;60343;-32.030;115.880;2023-03-01T07:38:53;100987.19;;;39.78;18.58
72370;BME280;60343;-32.030;115.880;2023-03-01T07:41:35;101000.19;;;39.86;18.97
72370;BME280;60343;-32.030;115.880;2023-03-01T07:44:09;101007.03;;;39.38;19.28
72370;BME280;60343;-32.030;115.880;2023-03-01T07:46:44;101006.34;;;39.13;20.06
72370;BME280;60343;-32.030;115.880;2023-03-01T07:49:20;101004.03;;;38.87;21.75
72370;BME280;60343;-32.030;115.880;2023-03-01T07:51:54;101006.22;;;38.66;20.62
72370;BME280;60343;-32.030;115.880;2023-03-01T07:54:29;101003.94;;;38.56;20.69
72370;BME280;60343;-32.030;115.880;2023-03-01T07:57:09;101000.06;;;38.33;20.77
72370;BME280;60343;-32.030;115.880;2023-03-01T07:59:44;100998.91;;;38.21;22.10
72370;BME280;60343;-32.030;115.880;2023-03-01T08:02:18;101002.31;;;38.03;20.38
72370;BME280;60343;-32.030;115.880;2023-03-01T08:04:53;100990.81;;;37.92;20.36
72370;BME280;60343;-32.030;115.880;2023-03-01T08:07:27;100998.47;;;37.83;20.04
72370;BME280;60343;-32.030;115.880;2023-03-01T08:10:02;100995.47;;;37.64;22.26
72370;BME280;60343;-32.030;115.880;2023-03-01T08:12:42;100991.53;;;37.65;19.95
72370;BME280;60343;-32.030;115.880;2023-03-01T08:15:17;100993.72;;;37.47;21.32
72370;BME280;60343;-32.030;115.880;2023-03-01T08:17:52;100988.72;;;37.41;20.37
72370;BME280;60343;-32.030;115.880;2023-03-01T08:20:27;100993.59;;;37.31;22.05
72370;BME280;60343;-32.030;115.880;2023-03-01T08:23:01;101000.56;;;36.80;23.64
72370;BME280;60343;-32.030;115.880;2023-03-01T08:25:36;101005.59;;;36.87;24.04
72370;BME280;60343;-32.030;115.880;2023-03-01T08:28:16;101006.47;;;36.67;28.98
72370;BME280;60343;-32.030;115.880;2023-03-01T08:30:53;101008.53;;;36.49;27.46
72370;BME280;60343;-32.030;115.880;2023-03-01T08:33:28;101000.19;;;36.28;28.13
72370;BME280;60343;-32.030;115.880;2023-03-01T08:36:05;101006.53;;;36.08;28.84
72370;BME280;60343;-32.030;115.880;2023-03-01T08:38:40;101013.94;;;35.83;31.12
72370;BME280;60343;-32.030;115.880;2023-03-01T08:41:15;101012.78;;;35.46;32.40
72370;BME280;60343;-32.030;115.880;2023-03-01T08:43:55;101013.38;;;35.22;33.52
72370;BME280;60343;-32.030;115.880;2023-03-01T08:46:33;101012.22;;;35.15;32.09
72370;BME280;60343;-32.030;115.880;2023-03-01T08:49:09;101018.81;;;35.02;32.74
72370;BME280;60343;-32.030;115.880;2023-03-01T08:51:44;101022.28;;;34.90;31.22
72370;BME280;60343;-32.030;115.880;2023-03-01T08:54:21;101032.94;;;34.79;30.28
72370;BME280;60343;-32.030;115.880;2023-03-01T08:56:57;101027.72;;;34.69;30.74
72370;BME280;60343;-32.030;115.880;2023-03-01T08:59:37;101033.41;;;34.47;31.55
72370;BME280;60343;-32.030;115.880;2023-03-01T09:02:13;101028.84;;;34.25;29.56
72370;BME280;60343;-32.030;115.880;2023-03-01T09:04:48;101033.50;;;34.16;31.12
72370;BME280;60343;-32.030;115.880;2023-03-01T09:07:23;101031.38;;;34.04;30.82
72370;BME280;60343;-32.030;115.880;2023-03-01T09:09:57;101029.22;;;33.93;31.58
72370;BME280;60343;-32.030;115.880;2023-03-01T09:12:32;101037.72;;;33.79;30.83
72370;BME280;60343;-32.030;115.880;2023-03-01T09:15:12;101037.34;;;33.72;31.68
72370;BME280;60343;-32.030;115.880;2023-03-01T09:17:48;101041.91;;;33.68;31.19
72370;BME280;60343;-32.030;115.880;2023-03-01T09:20:24;101039.31;;;33.72;30.20
72370;BME280;60343;-32.030;115.880;2023-03-01T09:22:59;101045.59;;;33.55;30.85
72370;BME280;60343;-32.030;115.880;2023-03-01T09:25:35;101048.53;;;33.50;31.53
72370;BME280;60343;-32.030;115.880;2023-03-01T09:28:10;101050.75;;;33.39;31.66
72370;BME280;60343;-32.030;115.880;2023-03-01T09:30:50;101044.66;;;33.29;33.07
72370;BME280;60343;-32.030;115.880;2023-03-01T09:33:25;101050.13;;;33.20;33.14
72370;BME280;60343;-32.030;115.880;2023-03-01T09:36:00;101052.53;;;33.13;31.81
72370;BME280;60343;-32.030;115.880;2023-03-01T09:38:35;101047.59;;;33.10;32.22
72370;BME280;60343;-32.030;115.880;2023-03-01T09:41:23;101047.06;;;32.99;32.20
72370;BME280;60343;-32.030;115.880;2023-03-01T09:44:05;101040.50;;;32.95;31.18
72370;BME280;60343;-32.030;115.880;2023-03-01T09:46:50;101040.88;;;33.02;30.85
72370;BME280;60343;-32.030;115.880;2023-03-01T09:49:27;101048.00;;;32.95;32.22
72370;BME280;60343;-32.030;115.880;2023-03-01T09:52:19;101049.59;;;32.87;32.80
72370;BME280;60343;-32.030;115.880;2023-03-01T09:54:56;101040.56;;;32.82;32.91
72370;BME280;60343;-32.030;115.880;2023-03-01T09:57:36;101050.47;;;32.74;32.78
72370;BME280;60343;-32.030;115.880;2023-03-01T10:00:26;101054.69;;;32.71;33.93
72370;BME280;60343;-32.030;115.880;2023-03-01T10:03:14;101047.63;;;32.65;34.47
72370;BME280;60343;-32.030;115.880;2023-03-01T10:05:56;101052.44;;;32.60;33.60
72370;BME280;60343;-32.030;115.880;2023-03-01T10:08:40;101058.91;;;32.55;33.64
72370;BME280;60343;-32.030;115.880;2023-03-01T10:11:21;101062.63;;;32.51;34.04
72370;BME280;60343;-32.030;115.880;2023-03-01T10:14:01;101066.97;;;32.43;35.41
72370;BME280;60343;-32.030;115.880;2023-03-01T10:16:41;101062.69;;;32.37;36.06
72370;BME280;60343;-32.030;115.880;2023-03-01T10:19:27;101064.56;;;32.28;35.33
72370;BME280;60343;-32.030;115.880;2023-03-01T10:22:09;101071.03;;;32.23;35.71
72370;BME280;60343;-32.030;115.880;2023-03-01T10:24:45;101080.78;;;32.21;36.68
72370;BME280;60343;-32.030;115.880;2023-03-01T10:27:23;101077.09;;;32.12;38.18
72370;BME280;60343;-32.030;115.880;2023-03-01T10:30:05;101084.03;;;32.09;37.91
72370;BME280;60343;-32.030;115.880;2023-03-01T10:32:44;101079.75;;;32.03;37.81
72370;BME280;60343;-32.030;115.880;2023-03-01T10:35:25;101084.25;;;31.99;38.29
72370;BME280;60343;-32.030;115.880;2023-03-01T10:38:05;101081.63;;;31.94;36.64
72370;BME280;60343;-32.030;115.880;2023-03-01T10:40:55;101086.53;;;31.97;36.12
72370;BME280;60343;-32.030;115.880;2023-03-01T10:43:42;101084.25;;;31.99;36.32
72370;BME280;60343;-32.030;115.880;2023-03-01T10:46:26;101091.44;;;32.00;37.44
72370;BME280;60343;-32.030;115.880;2023-03-01T10:49:12;101097.41;;;31.93;38.19
72370;BME280;60343;-32.030;115.880;2023-03-01T10:51:53;101107.34;;;31.81;38.92
72370;BME280;60343;-32.030;115.880;2023-03-01T10:54:30;101099.53;;;31.69;38.79
72370;BME280;60343;-32.030;115.880;2023-03-01T10:57:05;101099.44;;;31.61;38.84
72370;BME280;60343;-32.030;115.880;2023-03-01T10:59:40;101094.78;;;31.56;38.71
72370;BME280;60343;-32.030;115.880;2023-03-01T11:02:20;101096.91;;;31.45;38.80
72370;BME280;60343;-32.030;115.880;2023-03-01T11:05:00;101108.41;;;31.52;40.21
72370;BME280;60343;-32.030;115.880;2023-03-01T11:07:47;101109.25;;;31.53;40.87
72370;BME280;60343;-32.030;115.880;2023-03-01T11:10:23;101106.84;;;31.33;41.04
72370;BME280;60343;-32.030;115.880;2023-03-01T11:13:08;101099.13;;;31.30;40.80
72370;BME280;60343;-32.030;115.880;2023-03-01T11:16:00;101099.94;;;31.30;40.35
72370;BME280;60343;-32.030;115.880;2023-03-01T11:18:35;101097.72;;;31.32;40.04
72370;BME280;60343;-32.030;115.880;2023-03-01T11:21:10;101106.28;;;31.17;41.42
72370;BME280;60343;-32.030;115.880;2023-03-01T11:23:51;101102.16;;;31.15;41.49
72370;BME280;60343;-32.030;115.880;2023-03-01T11:26:25;101103.78;;;31.02;40.53
72370;BME280;60343;-32.030;115.880;2023-03-01T11:29:06;101106.53;;;31.02;39.60
72370;BME280;60343;-32.030;115.880;2023-03-01T11:31:46;101104.44;;;31.13;39.59
72370;BME280;60343;-32.030;115.880;2023-03-01T11:34:31;101115.41;;;31.18;39.24
72370;BME280;60343;-32.030;115.880;2023-03-01T11:37:21;101109.63;;;31.14;39.16
72370;BME280;60343;-32.030;115.880;2023-03-01T11:40:11;101110.88;;;31.08;39.41
72370;BME280;60343;-32.030;115.880;2023-03-01T11:43:04;101107.41;;;30.97;38.96
72370;BME280;60343;-32.030;115.880;2023-03-01T11:45:53;101100.84;;;30.93;39.15
72370;BME280;60343;-32.030;115.880;2023-03-01T11:51:41;101114.44;;;30.71;40.05
72370;BME280;60343;-32.030;115.880;2023-03-01T11:54:29;101118.19;;;30.61;41.69
72370;BME280;60343;-32.030;115.880;2023-03-01T11:57:16;101127.19;;;30.48;43.37
72370;BME280;60343;-32.030;115.880;2023-03-01T12:00:03;101137.50;;;30.43;44.96
72370;BME280;60343;-32.030;115.880;2023-03-01T12:05:45;101135.22;;;30.26;48.07
72370;BME280;60343;-32.030;115.880;2023-03-01T12:08:29;101140.25;;;30.19;46.28
72370;BME280;60343;-32.030;115.880;2023-03-01T12:11:14;101148.63;;;30.14;46.50
72370;BME280;60343;-32.030;115.880;2023-03-01T12:17:18;101147.44;;;29.96;44.69
72370;BME280;60343;-32.030;115.880;2023-03-01T12:20:21;101146.09;;;29.94;43.71
72370;BME280;60343;-32.030;115.880;2023-03-01T12:23:24;101149.94;;;29.98;43.47
72370;BME280;60343;-32.030;115.880;2023-03-01T12:26:13;101150.72;;;29.98;42.85
72370;BME280;60343;-32.030;115.880;2023-03-01T12:29:12;101155.50;;;29.93;42.58
72370;BME280;60343;-32.030;115.880;2023-03-01T12:32:10;101156.31;;;29.88;42.27
72370;BME280;60343;-32.030;115.880;2023-03-01T12:35:18;101159.13;;;29.83;42.39
72370;BME280;60343;-32.030;115.880;2023-03-01T12:38:13;101165.84;;;29.77;42.78
72370;BME280;60343;-32.030;115.880;2023-03-01T12:44:12;101151.50;;;29.75;43.29
72370;BME280;60343;-32.030;115.880;2023-03-01T12:46:59;101153.41;;;29.79;42.71
72370;BME280;60343;-32.030;115.880;2023-03-01T12:49:41;101142.94;;;29.76;41.55
72370;BME280;60343;-32.030;115.880;2023-03-01T12:52:22;101136.88;;;29.74;41.87
72370;BME280;60343;-32.030;115.880;2023-03-01T12:55:02;101140.47;;;29.75;41.68
72370;BME280;60343;-32.030;115.880;2023-03-01T12:57:43;101141.28;;;29.75;41.75
72370;BME280;60343;-32.030;115.880;2023-03-01T13:00:32;101143.50;;;29.73;41.40
72370;BME280;60343;-32.030;115.880;2023-03-01T13:03:19;101145.75;;;29.71;41.41
72370;BME280;60343;-32.030;115.880;2023-03-01T13:06:07;101155.97;;;29.71;41.66
72370;BME280;60343;-32.030;115.880;2023-03-01T13:08:49;101157.97;;;29.65;42.84
72370;BME280;60343;-32.030;115.880;2023-03-01T13:11:29;101158.28;;;29.59;44.25
72370;BME280;60343;-32.030;115.880;2023-03-01T13:17:31;101150.41;;;29.47;46.67
72370;BME280;60343;-32.030;115.880;2023-03-01T13:20:16;101144.13;;;29.41;45.70
72370;BME280;60343;-32.030;115.880;2023-03-01T13:23:02;101145.22;;;29.40;45.00
72370;BME280;60343;-32.030;115.880;2023-03-01T13:26:06;101150.19;;;29.38;44.46
72370;BME280;60343;-32.030;115.880;2023-03-01T13:28:48;101140.63;;;29.31;44.08
72370;BME280;60343;-32.030;115.880;2023-03-01T13:34:53;101145.59;;;29.24;44.81
72370;BME280;60343;-32.030;115.880;2023-03-01T13:37:35;101136.59;;;29.13;45.00